createdAt,value
2024-04-18T00:01:14.911Z,3.80
2024-04-18T00:03:42.068Z,3.80
2024-04-18T00:06:08.907Z,3.70
2024-04-18T00:08:35.738Z,3.60
2024-04-18T00:11:02.596Z,3.60
2024-04-18T00:13:29.332Z,3.50
2024-04-18T00:15:56.205Z,3.50
2024-04-18T00:18:23.084Z,3.40
2024-04-18T00:20:50.101Z,3.40
2024-04-18T00:23:16.826Z,3.30
2024-04-18T00:25:43.565Z,3.20
2024-04-18T00:28:10.325Z,3.20
2024-04-18T00:30:37.309Z,3.10
2024-04-18T00:33:04.428Z,3.10
2024-04-18T00:35:31.208Z,3.10
2024-04-18T00:37:57.938Z,3.10
2024-04-18T00:40:24.761Z,3.00
2024-04-18T00:42:51.567Z,3.00
2024-04-18T00:45:20.727Z,3.00
2024-04-18T00:47:49.500Z,3.00
2024-04-18T00:50:17.847Z,3.10
2024-04-18T00:52:47.087Z,3.10
2024-04-18T00:55:14.597Z,3.20
2024-04-18T00:57:41.835Z,3.30
2024-04-18T01:00:09.758Z,3.30
2024-04-18T01:02:37.582Z,3.30
2024-04-18T01:05:04.643Z,3.40
2024-04-18T01:07:31.530Z,3.40
2024-04-18T01:09:58.522Z,3.40
2024-04-18T01:12:25.328Z,3.50
2024-04-18T01:14:52.172Z,3.40
2024-04-18T01:17:18.971Z,3.40
2024-04-18T01:19:45.898Z,3.40
2024-04-18T01:22:12.760Z,3.40
2024-04-18T01:24:39.631Z,3.30
2024-04-18T01:27:09.413Z,3.40
2024-04-18T01:29:36.241Z,3.40
2024-04-18T01:32:03.087Z,3.50
2024-04-18T01:34:29.999Z,3.40
2024-04-18T01:36:56.851Z,3.50
2024-04-18T01:39:23.683Z,3.50
2024-04-18T01:41:50.603Z,3.60
2024-04-18T01:44:17.355Z,3.50
2024-04-18T01:46:44.222Z,3.50
2024-04-18T01:49:11.080Z,3.60
2024-04-18T01:51:39.715Z,3.60
2024-04-18T01:54:06.599Z,3.70
2024-04-18T01:56:33.407Z,3.70
2024-04-18T01:59:09.344Z,3.60
2024-04-18T02:01:36.648Z,3.60
2024-04-18T02:04:03.620Z,3.60
2024-04-18T02:06:30.843Z,3.60
2024-04-18T02:08:57.736Z,3.70
2024-04-18T02:11:24.534Z,3.70
2024-04-18T02:13:51.306Z,3.70
2024-04-18T02:16:18.038Z,3.70
2024-04-18T02:18:44.875Z,3.70
2024-04-18T02:21:11.689Z,3.70
2024-04-18T02:23:38.441Z,3.80
2024-04-18T02:26:05.492Z,3.80
2024-04-18T02:28:35.979Z,3.90
2024-04-18T02:31:06.290Z,3.90
2024-04-18T02:33:43.614Z,4.00
2024-04-18T02:36:11.183Z,4.00
2024-04-18T02:38:38.031Z,4.00
2024-04-18T02:41:06.176Z,4.10
2024-04-18T02:43:32.985Z,4.10
2024-04-18T02:45:59.753Z,4.10
2024-04-18T02:48:26.636Z,4.10
2024-04-18T02:50:53.527Z,4.10
2024-04-18T02:53:20.400Z,4.10
2024-04-18T02:55:47.274Z,4.20
2024-04-18T02:58:14.033Z,4.20
2024-04-18T03:00:40.861Z,4.30
2024-04-18T03:03:07.852Z,4.30
2024-04-18T03:05:34.607Z,4.20
2024-04-18T03:08:01.353Z,4.20
2024-04-18T03:10:28.117Z,4.20
2024-04-18T03:12:55.641Z,4.30
2024-04-18T03:15:22.556Z,4.20
2024-04-18T03:17:52.976Z,4.20
2024-04-18T03:20:20.278Z,4.10
2024-04-18T03:22:47.126Z,4.10
2024-04-18T03:25:14.127Z,4.10
2024-04-18T03:27:40.963Z,4.20
2024-04-18T03:30:08.420Z,4.10
2024-04-18T03:32:39.433Z,4.10
2024-04-18T03:35:06.783Z,4.10
2024-04-18T03:37:35.317Z,4.10
2024-04-18T03:40:03.451Z,4.10
2024-04-18T03:42:30.271Z,4.20
2024-04-18T03:44:58.408Z,4.10
2024-04-18T03:47:25.586Z,4.20
2024-04-18T03:49:52.613Z,4.20
2024-04-18T03:52:19.350Z,4.20
2024-04-18T03:54:56.229Z,4.10
2024-04-18T03:57:28.538Z,4.10
2024-04-18T03:59:55.348Z,4.10
2024-04-18T04:02:22.227Z,4.10
2024-04-18T04:04:51.305Z,4.10
2024-04-18T04:07:18.619Z,4.10
2024-04-18T04:09:46.128Z,4.00
2024-04-18T04:12:13.644Z,4.00
2024-04-18T04:14:40.546Z,4.00
2024-04-18T04:17:09.937Z,4.00
2024-04-18T04:19:36.849Z,4.00
2024-04-18T04:22:04.085Z,4.00
2024-04-18T04:24:30.946Z,4.00
2024-04-18T04:26:57.718Z,4.10
2024-04-18T04:29:24.518Z,4.10
2024-04-18T04:31:51.313Z,4.10
2024-04-18T04:34:18.415Z,4.20
2024-04-18T04:36:45.275Z,4.20
2024-04-18T04:39:12.069Z,4.20
2024-04-18T04:41:38.843Z,4.10
2024-04-18T04:44:05.747Z,4.10
2024-04-18T04:46:32.691Z,4.10
2024-04-18T04:48:59.714Z,4.10
2024-04-18T04:51:26.614Z,4.20
2024-04-18T04:53:54.640Z,4.20
2024-04-18T04:56:21.564Z,4.20
2024-04-18T04:58:48.482Z,4.30
2024-04-18T05:01:15.425Z,4.30
2024-04-18T05:03:42.357Z,4.50
2024-04-18T05:06:09.225Z,4.60
2024-04-18T05:08:36.104Z,4.70
2024-04-18T05:11:03.596Z,4.80
2024-04-18T05:13:30.470Z,4.90
2024-04-18T05:15:57.354Z,4.80
2024-04-18T05:18:24.411Z,4.90
2024-04-18T05:20:51.218Z,5.00
2024-04-18T05:23:18.025Z,5.20
2024-04-18T05:25:45.121Z,5.30
2024-04-18T05:28:14.273Z,5.30
2024-04-18T05:31:02.403Z,5.50
2024-04-18T05:33:30.293Z,5.60
2024-04-18T05:35:57.780Z,5.80
2024-04-18T05:38:24.684Z,5.80
2024-04-18T05:40:51.432Z,5.80
2024-04-18T05:43:18.474Z,5.80
2024-04-18T05:45:46.399Z,5.90
2024-04-18T05:48:13.709Z,5.90
2024-04-18T05:50:41.316Z,5.80
2024-04-18T05:53:08.162Z,5.90
2024-04-18T05:55:36.650Z,5.90
2024-04-18T05:58:03.575Z,5.90
2024-04-18T06:00:30.386Z,6.00
2024-04-18T06:02:57.264Z,6.00
2024-04-18T06:05:24.114Z,5.90
2024-04-18T06:07:50.898Z,5.80
2024-04-18T06:10:18.396Z,5.70
2024-04-18T06:12:45.215Z,5.70
2024-04-18T06:15:12.052Z,5.60
2024-04-18T06:17:38.985Z,5.50
2024-04-18T06:20:06.749Z,5.50
2024-04-18T06:22:33.718Z,5.40
2024-04-18T06:25:00.687Z,5.50
2024-04-18T06:27:27.516Z,5.50
2024-04-18T06:29:54.344Z,5.50
2024-04-18T06:32:21.703Z,5.60
2024-04-18T06:34:48.630Z,5.60
2024-04-18T06:37:16.004Z,5.70
2024-04-18T06:39:43.098Z,5.80
2024-04-18T06:42:09.921Z,5.80
2024-04-18T06:44:37.394Z,5.60
2024-04-18T06:47:04.447Z,5.70
2024-04-18T06:49:31.267Z,6.00
2024-04-18T06:51:58.094Z,6.00
2024-04-18T06:54:25.673Z,6.10
2024-04-18T06:56:52.519Z,6.20
2024-04-18T06:59:19.403Z,6.20
2024-04-18T07:01:46.711Z,6.20
2024-04-18T07:04:13.753Z,6.00
2024-04-18T07:06:40.647Z,6.00
2024-04-18T07:09:10.146Z,6.00
2024-04-18T07:11:36.950Z,6.00
2024-04-18T07:14:03.762Z,6.10
2024-04-18T07:16:30.870Z,6.10
2024-04-18T07:18:58.556Z,6.20
2024-04-18T07:21:25.459Z,6.30
2024-04-18T07:23:52.527Z,6.30
2024-04-18T07:26:19.336Z,6.40
2024-04-18T07:28:46.252Z,6.60
2024-04-18T07:31:13.050Z,6.60
2024-04-18T07:33:39.938Z,6.60
2024-04-18T07:36:07.141Z,6.70
2024-04-18T07:38:33.956Z,6.70
2024-04-18T07:41:00.717Z,6.60
2024-04-18T07:43:27.595Z,6.60
2024-04-18T07:45:54.574Z,6.60
2024-04-18T07:48:21.646Z,6.40
2024-04-18T07:50:49.785Z,6.50
2024-04-18T07:53:16.929Z,6.60
2024-04-18T07:55:45.098Z,6.60
2024-04-18T07:58:12.586Z,7.00
2024-04-18T08:00:41.117Z,7.10
2024-04-18T08:03:10.400Z,7.10
2024-04-18T08:05:40.604Z,7.30
2024-04-18T08:08:12.177Z,7.40
2024-04-18T08:10:53.024Z,7.20
2024-04-18T08:13:31.019Z,7.10
2024-04-18T08:16:02.763Z,6.90
2024-04-18T08:18:30.044Z,6.90
2024-04-18T08:21:00.462Z,7.10
2024-04-18T08:23:27.675Z,7.30
2024-04-18T08:25:54.574Z,7.60
2024-04-18T08:28:21.378Z,7.40
2024-04-18T08:30:48.143Z,7.40
2024-04-18T08:33:15.140Z,7.60
2024-04-18T08:35:45.043Z,8.00
2024-04-18T08:38:13.441Z,8.00
2024-04-18T08:40:45.123Z,7.90
2024-04-18T08:43:13.117Z,8.00
2024-04-18T08:45:41.924Z,7.70
2024-04-18T08:48:11.228Z,7.40
2024-04-18T08:50:39.428Z,7.20
2024-04-18T08:53:06.437Z,7.20
2024-04-18T08:55:36.235Z,7.40
2024-04-18T08:58:10.514Z,7.30
2024-04-18T09:00:41.565Z,7.10
2024-04-18T09:03:10.617Z,7.30
2024-04-18T09:05:38.469Z,7.80
2024-04-18T09:08:06.853Z,8.10
2024-04-18T09:10:33.790Z,8.30
2024-04-18T09:13:04.113Z,8.70
2024-04-18T09:15:34.000Z,8.60
2024-04-18T09:18:08.619Z,8.60
2024-04-18T09:20:40.890Z,9.00
2024-04-18T09:23:07.901Z,9.10
2024-04-18T09:25:38.427Z,9.40
2024-04-18T09:28:06.538Z,9.80
2024-04-18T09:30:33.790Z,10.10
2024-04-18T09:33:05.268Z,10.10
2024-04-18T09:35:35.725Z,9.80
2024-04-18T09:38:09.312Z,9.00
2024-04-18T09:40:41.238Z,8.70
2024-04-18T09:43:16.289Z,8.60
2024-04-18T09:45:51.391Z,8.60
2024-04-18T09:48:19.485Z,8.70
2024-04-18T09:50:48.016Z,8.90
2024-04-18T09:53:16.054Z,8.90
2024-04-18T09:55:43.081Z,8.60
2024-04-18T09:58:11.336Z,8.80
2024-04-18T10:00:38.843Z,8.70
2024-04-18T10:03:07.737Z,9.20
2024-04-18T10:05:37.438Z,9.10
2024-04-18T10:08:05.517Z,8.50
2024-04-18T10:10:33.093Z,8.40
2024-04-18T10:13:00.930Z,8.20
2024-04-18T10:15:27.818Z,8.10
2024-04-18T10:17:54.698Z,8.20
2024-04-18T10:20:29.158Z,8.60
2024-04-18T10:22:57.867Z,9.40
2024-04-18T10:25:24.790Z,9.80
2024-04-18T10:27:52.382Z,10.30
2024-04-18T10:30:22.944Z,10.80
2024-04-18T10:32:53.521Z,10.40
2024-04-18T10:35:21.518Z,10.50
2024-04-18T10:37:51.967Z,11.00
2024-04-18T10:40:18.811Z,11.00
2024-04-18T10:42:45.699Z,11.80
2024-04-18T10:45:13.494Z,11.70
2024-04-18T10:47:41.466Z,11.00
2024-04-18T10:50:09.339Z,10.20
2024-04-18T10:52:36.143Z,10.10
2024-04-18T10:55:05.202Z,10.10
2024-04-18T10:57:32.711Z,9.60
2024-04-18T10:59:59.655Z,9.40
2024-04-18T11:02:26.959Z,9.50
2024-04-18T11:04:54.490Z,9.90
2024-04-18T11:07:21.273Z,10.30
2024-04-18T11:09:48.102Z,10.80
2024-04-18T11:12:15.980Z,11.10
2024-04-18T11:14:42.851Z,10.30
2024-04-18T11:17:09.742Z,9.90
2024-04-18T11:19:36.856Z,9.30
2024-04-18T11:22:03.791Z,9.30
2024-04-18T11:24:30.990Z,9.30
2024-04-18T11:26:58.233Z,10.10
2024-04-18T11:29:28.771Z,10.80
2024-04-18T11:32:07.955Z,11.20
2024-04-18T11:34:35.075Z,11.80
2024-04-18T11:37:04.563Z,11.50
2024-04-18T11:39:31.649Z,11.10
2024-04-18T11:41:58.683Z,11.00
2024-04-18T11:44:25.626Z,11.00
2024-04-18T11:46:54.876Z,11.30
2024-04-18T11:49:21.841Z,11.40
2024-04-18T11:51:48.737Z,11.50
2024-04-18T11:54:15.561Z,11.50
2024-04-18T11:56:42.664Z,11.70
2024-04-18T11:59:09.984Z,11.80
2024-04-18T12:01:37.036Z,12.20
2024-04-18T12:04:04.501Z,12.30
2024-04-18T12:06:31.627Z,13.00
2024-04-18T12:08:58.407Z,12.60
2024-04-18T12:11:25.264Z,12.20
2024-04-18T12:13:52.109Z,11.90
2024-04-18T12:16:19.238Z,12.00
2024-04-18T12:18:46.032Z,11.50
2024-04-18T12:21:12.847Z,12.10
2024-04-18T12:23:44.184Z,12.70
2024-04-18T12:26:11.890Z,13.10
2024-04-18T12:28:39.190Z,13.10
2024-04-18T12:31:06.153Z,12.60
2024-04-18T12:33:33.320Z,12.70
2024-04-18T12:36:00.414Z,12.80
2024-04-18T12:38:27.393Z,12.10
2024-04-18T12:40:54.510Z,11.70
2024-04-18T12:43:21.315Z,11.10
2024-04-18T12:45:48.359Z,10.80
2024-04-18T12:48:15.383Z,10.40
2024-04-18T12:50:42.197Z,10.40
2024-04-18T12:53:09.046Z,10.60
2024-04-18T12:55:36.896Z,10.70
2024-04-18T12:58:04.226Z,11.00
2024-04-18T13:00:31.323Z,11.30
2024-04-18T13:02:58.566Z,11.80
2024-04-18T13:05:25.457Z,12.60
2024-04-18T13:07:52.283Z,13.60
2024-04-18T13:10:20.284Z,13.90
2024-04-18T13:12:47.119Z,13.90
2024-04-18T13:15:13.967Z,12.30
2024-04-18T13:17:40.815Z,11.20
2024-04-18T13:20:08.091Z,10.60
2024-04-18T13:22:35.080Z,10.40
2024-04-18T13:25:01.922Z,10.00
2024-04-18T13:27:31.424Z,9.70
2024-04-18T13:29:59.095Z,9.40
2024-04-18T13:32:26.215Z,9.40
2024-04-18T13:34:56.023Z,9.30
2024-04-18T13:37:22.898Z,9.10
2024-04-18T13:39:57.757Z,8.90
2024-04-18T13:42:26.098Z,8.30
2024-04-18T13:44:54.490Z,8.10
2024-04-18T13:47:21.317Z,7.80
2024-04-18T13:49:48.147Z,7.40
2024-04-18T13:52:14.918Z,7.40
2024-04-18T13:54:41.757Z,7.40
2024-04-18T13:57:08.576Z,7.50
2024-04-18T13:59:35.468Z,7.70
2024-04-18T14:02:04.126Z,7.90
2024-04-18T14:04:31.236Z,8.10
2024-04-18T14:06:58.356Z,8.30
2024-04-18T14:09:33.740Z,8.30
2024-04-18T14:12:00.780Z,8.40
2024-04-18T14:14:29.635Z,8.40
2024-04-18T14:17:15.595Z,8.60
2024-04-18T14:19:42.401Z,8.60
2024-04-18T14:22:09.224Z,8.60
2024-04-18T14:24:36.769Z,8.70
2024-04-18T14:27:03.988Z,8.70
2024-04-18T14:29:30.800Z,8.80
2024-04-18T14:32:00.708Z,8.90
2024-04-18T14:34:28.398Z,8.90
2024-04-18T14:36:55.144Z,8.70
2024-04-18T14:39:21.924Z,8.50
2024-04-18T14:41:48.820Z,8.20
2024-04-18T14:44:15.595Z,8.10
2024-04-18T14:46:42.374Z,8.00
2024-04-18T14:49:12.378Z,8.00
2024-04-18T14:51:39.472Z,7.90
2024-04-18T14:54:06.413Z,7.90
2024-04-18T14:56:33.170Z,7.90
2024-04-18T14:59:00.525Z,8.00
2024-04-18T15:01:27.442Z,8.00
2024-04-18T15:03:54.710Z,8.20
2024-04-18T15:06:22.852Z,8.40
2024-04-18T15:08:49.634Z,8.60
2024-04-18T15:11:16.875Z,8.70
2024-04-18T15:13:43.703Z,8.60
2024-04-18T15:16:10.697Z,8.50
2024-04-18T15:18:37.727Z,8.50
2024-04-18T15:21:04.810Z,8.40
2024-04-18T15:23:31.662Z,8.60
2024-04-18T15:25:58.648Z,8.80
2024-04-18T15:28:26.053Z,9.30
2024-04-18T15:30:52.882Z,9.90
2024-04-18T15:33:19.907Z,10.10
2024-04-18T15:35:47.121Z,10.10
2024-04-18T15:38:14.016Z,10.10
2024-04-18T15:40:40.858Z,10.00
2024-04-18T15:43:07.827Z,9.90
2024-04-18T15:45:40.766Z,9.60
2024-04-18T15:48:09.888Z,9.30
2024-04-18T15:50:42.661Z,9.00
2024-04-18T15:53:30.489Z,8.80
2024-04-18T15:56:01.745Z,8.80
2024-04-18T15:58:28.582Z,8.70
2024-04-18T16:00:55.415Z,8.70
2024-04-18T16:03:22.292Z,8.80
2024-04-18T16:05:49.133Z,8.90
2024-04-18T16:08:15.879Z,8.80
2024-04-18T16:10:42.759Z,8.70
2024-04-18T16:13:09.520Z,8.60
2024-04-18T16:15:36.335Z,8.60
2024-04-18T16:18:09.239Z,8.60
2024-04-18T16:20:36.085Z,8.60
2024-04-18T16:23:05.924Z,8.50
2024-04-18T16:25:39.422Z,8.40
2024-04-18T16:28:06.732Z,8.40
2024-04-18T16:30:33.545Z,8.40
2024-04-18T16:33:00.568Z,8.30
2024-04-18T16:35:27.397Z,8.20
2024-04-18T16:37:54.179Z,8.20
2024-04-18T16:40:20.980Z,8.20
2024-04-18T16:42:47.746Z,8.10
2024-04-18T16:45:14.632Z,8.40
2024-04-18T16:47:41.411Z,9.10
2024-04-18T16:50:08.471Z,10.40
2024-04-18T16:52:35.224Z,11.20
2024-04-18T16:55:02.071Z,11.90
2024-04-18T16:57:30.553Z,12.40
2024-04-18T16:59:58.063Z,12.90
2024-04-18T17:02:24.822Z,13.30
2024-04-18T17:04:51.594Z,13.50
2024-04-18T17:07:18.383Z,13.80
2024-04-18T17:09:45.228Z,13.90
2024-04-18T17:12:11.988Z,13.90
2024-04-18T17:14:39.281Z,14.20
2024-04-18T17:17:06.320Z,13.70
2024-04-18T17:19:34.581Z,12.90
2024-04-18T17:22:01.526Z,12.00
2024-04-18T17:24:28.391Z,11.30
2024-04-18T17:26:55.146Z,10.60
2024-04-18T17:29:21.891Z,10.00
2024-04-18T17:31:48.726Z,9.50
2024-04-18T17:34:15.551Z,9.20
2024-04-18T17:36:42.443Z,8.90
2024-04-18T17:39:09.446Z,8.60
2024-04-18T17:41:36.248Z,8.30
2024-04-18T17:44:03.232Z,8.00
2024-04-18T17:46:30.028Z,7.90
2024-04-18T17:48:56.848Z,7.60
2024-04-18T17:51:23.677Z,7.40
2024-04-18T17:53:50.423Z,7.20
2024-04-18T17:56:17.196Z,7.00
2024-04-18T17:58:44.021Z,6.80
2024-04-18T18:01:11.002Z,6.70
2024-04-18T18:03:38.159Z,6.70
2024-04-18T18:06:05.137Z,6.60
2024-04-18T18:08:31.932Z,6.50
2024-04-18T18:10:58.717Z,6.40
2024-04-18T18:13:25.462Z,6.30
2024-04-18T18:15:52.190Z,6.20
2024-04-18T18:18:19.071Z,6.10
2024-04-18T18:20:46.022Z,6.10
2024-04-18T18:23:15.391Z,6.00
2024-04-18T18:25:43.423Z,6.00
2024-04-18T18:28:10.143Z,6.00
2024-04-18T18:30:39.078Z,6.00
2024-04-18T18:33:05.984Z,6.00
2024-04-18T18:35:32.781Z,5.90
2024-04-18T18:37:59.527Z,5.80
2024-04-18T18:40:26.362Z,5.80
2024-04-18T18:42:53.079Z,5.70
2024-04-18T18:45:19.981Z,5.70
2024-04-18T18:47:46.852Z,5.60
2024-04-18T18:50:13.780Z,5.60
2024-04-18T18:52:40.624Z,5.50
2024-04-18T18:55:07.887Z,5.50
2024-04-18T18:57:34.742Z,5.50
2024-04-18T19:00:01.506Z,5.50
2024-04-18T19:02:28.650Z,5.40
2024-04-18T19:04:55.462Z,5.40
2024-04-18T19:07:22.199Z,5.40
2024-04-18T19:09:48.973Z,5.40
2024-04-18T19:12:15.848Z,5.30
2024-04-18T19:14:42.620Z,5.40
2024-04-18T19:17:09.793Z,5.30
2024-04-18T19:19:37.170Z,5.30
2024-04-18T19:22:04.398Z,5.20
2024-04-18T19:24:31.227Z,5.10
2024-04-18T19:27:00.725Z,5.10
2024-04-18T19:29:36.370Z,5.00
2024-04-18T19:32:11.559Z,4.90
2024-04-18T19:34:38.468Z,4.90
2024-04-18T19:37:05.324Z,4.80
2024-04-18T19:39:32.388Z,4.80
2024-04-18T19:42:00.721Z,4.80
2024-04-18T19:44:27.494Z,4.70
2024-04-18T19:46:54.275Z,4.70
2024-04-18T19:49:21.125Z,4.60
2024-04-18T19:51:47.997Z,4.60
2024-04-18T19:54:14.814Z,4.60
2024-04-18T19:56:41.594Z,4.60
2024-04-18T19:59:08.325Z,4.60
2024-04-18T20:01:35.164Z,4.60
2024-04-18T20:04:02.223Z,4.60
2024-04-18T20:06:29.139Z,4.60
2024-04-18T20:08:55.908Z,4.60
2024-04-18T20:11:22.829Z,4.50
2024-04-18T20:13:49.635Z,4.50
2024-04-18T20:16:16.423Z,4.60
2024-04-18T20:18:43.350Z,4.60
2024-04-18T20:21:10.143Z,4.50
2024-04-18T20:23:36.969Z,4.50
2024-04-18T20:26:03.902Z,4.40
2024-04-18T20:28:30.686Z,4.30
2024-04-18T20:30:57.525Z,4.30
2024-04-18T20:33:24.437Z,4.30
2024-04-18T20:35:51.287Z,4.30
2024-04-18T20:38:18.076Z,4.30
2024-04-18T20:40:44.848Z,4.30
2024-04-18T20:43:11.692Z,4.40
2024-04-18T20:45:38.509Z,4.30
2024-04-18T20:48:05.931Z,4.30
2024-04-18T20:50:33.518Z,4.30
2024-04-18T20:53:00.291Z,4.20
2024-04-18T20:55:27.213Z,4.20
2024-04-18T20:57:54.094Z,4.10
2024-04-18T21:00:27.932Z,4.10
2024-04-18T21:02:54.986Z,4.10
2024-04-18T21:05:21.874Z,4.10
2024-04-18T21:07:48.766Z,4.10
2024-04-18T21:10:15.724Z,4.20
2024-04-18T21:12:42.706Z,4.20
2024-04-18T21:15:09.740Z,4.20
2024-04-18T21:17:36.722Z,4.30
2024-04-18T21:20:03.939Z,4.40
2024-04-18T21:22:30.997Z,4.40
2024-04-18T21:24:58.098Z,4.40
2024-04-18T21:27:25.005Z,4.40
2024-04-18T21:29:52.520Z,4.40
2024-04-18T21:32:19.483Z,4.40
2024-04-18T21:34:46.389Z,4.30
2024-04-18T21:37:13.317Z,4.40
2024-04-18T21:39:40.328Z,4.40
2024-04-18T21:42:07.432Z,4.40
2024-04-18T21:44:34.286Z,4.30
2024-04-18T21:47:01.147Z,4.30
2024-04-18T21:49:28.063Z,4.40
2024-04-18T21:51:54.954Z,4.40
2024-04-18T21:54:21.851Z,4.40
2024-04-18T21:56:48.719Z,4.40
2024-04-18T21:59:16.245Z,4.40
2024-04-18T22:01:43.345Z,4.40
2024-04-18T22:04:11.327Z,4.50
2024-04-18T22:06:38.654Z,4.40
2024-04-18T22:09:05.688Z,4.40
2024-04-18T22:11:32.773Z,4.40
2024-04-18T22:13:59.731Z,4.30
2024-04-18T22:16:26.789Z,4.20
2024-04-18T22:18:53.853Z,4.20
2024-04-18T22:21:21.021Z,4.20
2024-04-18T22:23:50.736Z,4.10
2024-04-18T22:26:19.186Z,4.10
2024-04-18T22:28:46.133Z,4.10
2024-04-18T22:31:13.713Z,4.00
2024-04-18T22:33:41.096Z,4.00
2024-04-18T22:36:08.344Z,4.00
2024-04-18T22:38:35.364Z,4.00
2024-04-18T22:41:02.298Z,4.00
2024-04-18T22:43:29.437Z,4.00
2024-04-18T22:45:56.358Z,3.90
2024-04-18T22:48:23.720Z,3.90
2024-04-18T22:50:51.031Z,4.00
2024-04-18T22:53:18.433Z,4.00
2024-04-18T22:55:45.306Z,4.00
2024-04-18T22:58:13.535Z,3.90
2024-04-18T23:00:41.374Z,3.90
2024-04-18T23:03:08.665Z,3.90
2024-04-18T23:05:35.620Z,3.90
2024-04-18T23:08:03.001Z,3.90
2024-04-18T23:10:29.862Z,4.00
2024-04-18T23:12:56.721Z,4.00
2024-04-18T23:15:23.625Z,4.10
2024-04-18T23:17:50.682Z,4.10
2024-04-18T23:20:18.357Z,4.10
2024-04-18T23:22:45.455Z,4.20
2024-04-18T23:25:12.408Z,4.20
2024-04-18T23:27:39.291Z,4.20
2024-04-18T23:30:06.938Z,4.30
2024-04-18T23:32:33.922Z,4.30
2024-04-18T23:35:00.852Z,4.30
2024-04-18T23:37:27.708Z,4.30
2024-04-18T23:39:54.610Z,4.30
2024-04-18T23:42:21.467Z,4.30
2024-04-18T23:44:48.321Z,4.40
2024-04-18T23:47:15.212Z,4.40
2024-04-18T23:49:42.093Z,4.40
2024-04-18T23:52:08.966Z,4.40
2024-04-18T23:54:35.855Z,4.40
2024-04-18T23:57:02.788Z,4.40
2024-04-18T23:59:29.681Z,4.50
